createdAt,value
2022-11-13T00:00:56.200Z,3.61
2022-11-13T00:01:56.113Z,3.59
2022-11-13T00:02:56.115Z,3.61
2022-11-13T00:03:55.943Z,3.62
2022-11-13T00:04:55.861Z,3.62
2022-11-13T00:05:55.773Z,3.59
2022-11-13T00:06:59.091Z,3.69
2022-11-13T00:07:55.607Z,3.71
2022-11-13T00:08:55.516Z,3.82
2022-11-13T00:09:55.435Z,3.77
2022-11-13T00:10:55.343Z,3.79
2022-11-13T00:11:55.371Z,3.86
2022-11-13T00:12:55.174Z,3.84
2022-11-13T00:13:55.084Z,3.86
2022-11-13T00:14:55.003Z,3.87
2022-11-13T00:15:54.917Z,3.82
2022-11-13T00:16:54.832Z,3.83
2022-11-13T00:17:54.746Z,3.77
2022-11-13T00:18:54.660Z,3.79
2022-11-13T00:19:54.575Z,3.84
2022-11-13T00:20:54.492Z,3.82
2022-11-13T00:21:54.405Z,3.87
2022-11-13T00:22:54.319Z,3.86
2022-11-13T00:23:54.234Z,3.83
2022-11-13T00:24:54.349Z,3.92
2022-11-13T00:25:54.062Z,3.83
2022-11-13T00:26:53.979Z,3.82
2022-11-13T00:27:54.006Z,3.83
2022-11-13T00:28:53.819Z,3.71
2022-11-13T00:29:53.730Z,3.72
2022-11-13T00:30:53.888Z,3.69
2022-11-13T00:31:53.552Z,3.75
2022-11-13T00:32:53.470Z,3.59
2022-11-13T00:34:53.297Z,3.50
2022-11-13T00:35:53.210Z,3.64
2022-11-13T00:36:53.127Z,3.54
2022-11-13T00:37:53.042Z,3.50
2022-11-13T00:38:52.954Z,3.37
2022-11-13T00:39:57.046Z,3.37
2022-11-13T00:40:52.786Z,3.37
2022-11-13T00:41:52.699Z,3.32
2022-11-13T00:42:52.612Z,3.32
2022-11-13T00:43:52.649Z,3.37
2022-11-13T00:44:52.444Z,3.29
2022-11-13T00:45:52.359Z,3.35
2022-11-13T00:46:52.270Z,3.27
2022-11-13T00:47:52.192Z,3.39
2022-11-13T00:48:52.107Z,3.24
2022-11-13T00:49:52.018Z,3.27
2022-11-13T00:50:51.931Z,3.19
2022-11-13T00:51:51.846Z,3.21
2022-11-13T00:52:51.761Z,3.22
2022-11-13T00:53:51.676Z,3.29
2022-11-13T00:54:51.590Z,3.27
2022-11-13T00:55:51.511Z,3.31
2022-11-13T00:56:51.423Z,3.34
2022-11-13T00:57:51.334Z,3.34
2022-11-13T00:58:51.249Z,3.27
2022-11-13T00:59:51.279Z,3.31
2022-11-13T01:00:51.078Z,3.17
2022-11-13T01:01:51.046Z,3.24
2022-11-13T01:02:50.908Z,3.32
2022-11-13T01:03:50.826Z,3.32
2022-11-13T01:04:50.836Z,3.27
2022-11-13T01:05:50.653Z,3.29
2022-11-13T01:06:50.631Z,3.29
2022-11-13T01:07:50.482Z,3.35
2022-11-13T01:08:50.394Z,3.31
2022-11-13T01:09:50.312Z,3.43
2022-11-13T01:10:53.755Z,3.47
2022-11-13T01:11:50.140Z,3.35
2022-11-13T01:12:50.051Z,3.51
2022-11-13T01:13:49.967Z,3.53
2022-11-13T01:14:49.881Z,3.51
2022-11-13T01:15:49.908Z,3.48
2022-11-13T01:16:49.718Z,3.54
2022-11-13T01:17:49.627Z,3.59
2022-11-13T01:18:49.542Z,3.66
2022-11-13T01:19:49.456Z,3.62
2022-11-13T01:20:49.373Z,3.61
2022-11-13T01:21:49.284Z,3.61
2022-11-13T01:22:49.201Z,3.57
2022-11-13T01:23:49.113Z,3.57
2022-11-13T01:24:49.028Z,3.57
2022-11-13T01:25:48.943Z,3.61
2022-11-13T01:26:48.858Z,3.62
2022-11-13T01:27:48.776Z,3.64
2022-11-13T01:28:48.687Z,3.54
2022-11-13T01:29:48.604Z,3.57
2022-11-13T01:30:48.517Z,3.53
2022-11-13T01:31:48.549Z,3.41
2022-11-13T01:32:48.348Z,3.47
2022-11-13T01:33:48.262Z,3.48
2022-11-13T01:34:48.177Z,3.50
2022-11-13T01:35:48.091Z,3.48
2022-11-13T01:36:48.012Z,3.51
2022-11-13T01:37:47.973Z,3.47
2022-11-13T01:38:47.835Z,3.43
2022-11-13T01:39:47.750Z,3.37
2022-11-13T01:40:47.665Z,3.32
2022-11-13T01:41:47.585Z,3.35
2022-11-13T01:42:47.495Z,3.27
2022-11-13T01:43:47.411Z,3.25
2022-11-13T01:44:47.324Z,3.24
2022-11-13T01:45:47.388Z,3.25
2022-11-13T01:46:47.153Z,3.21
2022-11-13T01:47:47.191Z,3.25
2022-11-13T01:48:46.984Z,3.19
2022-11-13T01:49:46.897Z,3.17
2022-11-13T01:50:46.810Z,3.16
2022-11-13T01:51:46.728Z,3.14
2022-11-13T01:52:46.740Z,3.13
2022-11-13T01:53:46.554Z,3.06
2022-11-13T01:54:46.468Z,3.06
2022-11-13T01:55:46.382Z,2.99
2022-11-13T01:56:46.299Z,3.07
2022-11-13T01:57:46.211Z,3.04
2022-11-13T01:58:46.127Z,3.03
2022-11-13T01:59:46.042Z,2.91
2022-11-13T02:00:45.957Z,3.03
2022-11-13T02:01:45.926Z,3.01
2022-11-13T02:02:45.783Z,2.99
2022-11-13T02:03:45.813Z,2.96
2022-11-13T02:04:45.613Z,2.99
2022-11-13T02:05:45.527Z,2.98
2022-11-13T02:06:45.519Z,2.99
2022-11-13T02:07:45.355Z,2.98
2022-11-13T02:08:45.269Z,2.96
2022-11-13T02:09:45.184Z,2.96
2022-11-13T02:10:45.098Z,2.88
2022-11-13T02:11:45.013Z,2.92
2022-11-13T02:12:44.927Z,2.85
2022-11-13T02:13:44.840Z,2.84
2022-11-13T02:14:44.755Z,2.66
2022-11-13T02:15:44.671Z,2.67
2022-11-13T02:16:44.584Z,2.70
2022-11-13T02:17:44.497Z,2.73
2022-11-13T02:18:44.412Z,2.73
2022-11-13T02:19:44.439Z,2.67
2022-11-13T02:20:44.241Z,2.67
2022-11-13T02:21:44.155Z,2.75
2022-11-13T02:22:44.068Z,2.66
2022-11-13T02:23:43.984Z,2.75
2022-11-13T02:24:45.751Z,2.71
2022-11-13T02:25:43.809Z,2.71
2022-11-13T02:26:43.725Z,2.67
2022-11-13T02:27:43.653Z,2.78
2022-11-13T02:28:43.554Z,2.67
2022-11-13T02:29:43.469Z,2.68
2022-11-13T02:30:43.378Z,2.73
2022-11-13T02:31:43.296Z,2.74
2022-11-13T02:32:43.208Z,2.75
2022-11-13T02:33:43.123Z,2.73
2022-11-13T02:34:43.039Z,2.67
2022-11-13T02:35:43.067Z,2.78
2022-11-13T02:36:42.864Z,2.81
2022-11-13T02:37:42.778Z,2.84
2022-11-13T02:38:42.692Z,2.78
2022-11-13T02:39:42.610Z,2.70
2022-11-13T02:40:42.521Z,2.71
2022-11-13T02:41:42.435Z,2.70
2022-11-13T02:42:42.348Z,2.67
2022-11-13T02:43:42.267Z,2.56
2022-11-13T02:44:42.177Z,2.57
2022-11-13T02:45:42.091Z,2.63
2022-11-13T02:46:42.006Z,2.55
2022-11-13T02:47:41.921Z,2.50
2022-11-13T02:48:41.842Z,2.52
2022-11-13T02:49:41.751Z,2.46
2022-11-13T02:50:41.662Z,2.48
2022-11-13T02:51:41.691Z,2.49
2022-11-13T02:52:41.561Z,2.56
2022-11-13T02:53:41.402Z,2.41
2022-11-13T02:54:41.318Z,2.48
2022-11-13T02:55:41.232Z,2.49
2022-11-13T02:56:41.146Z,2.50
2022-11-13T02:57:41.059Z,2.38
2022-11-13T02:58:40.973Z,2.39
2022-11-13T02:59:40.888Z,2.44
2022-11-13T03:00:40.801Z,2.38
2022-11-13T03:01:40.763Z,2.35
2022-11-13T03:02:40.631Z,2.37
2022-11-13T03:03:57.206Z,2.35
2022-11-13T03:05:10.434Z,2.42
2022-11-13T03:05:40.368Z,2.49
2022-11-13T03:06:40.341Z,2.41
2022-11-13T03:07:40.318Z,2.46
2022-11-13T03:08:40.340Z,2.49
2022-11-13T03:09:40.173Z,2.55
2022-11-13T03:10:39.937Z,2.49
2022-11-13T03:11:39.852Z,2.66
2022-11-13T03:12:39.764Z,2.50
2022-11-13T03:13:39.679Z,2.59
2022-11-13T03:14:39.592Z,2.55
2022-11-13T03:15:39.510Z,2.53
2022-11-13T03:16:39.419Z,2.53
2022-11-13T03:17:39.334Z,2.53
2022-11-13T03:18:39.248Z,2.49
2022-11-13T03:19:39.161Z,2.37
2022-11-13T03:20:39.075Z,2.42
2022-11-13T03:21:38.987Z,2.41
2022-11-13T03:22:38.903Z,2.34
2022-11-13T03:23:38.931Z,2.41
2022-11-13T03:24:38.732Z,2.28
2022-11-13T03:25:38.643Z,2.34
2022-11-13T03:26:38.656Z,2.39
2022-11-13T03:27:38.472Z,2.42
2022-11-13T03:28:38.386Z,2.37
2022-11-13T03:29:38.303Z,2.37
2022-11-13T03:30:38.213Z,2.38
2022-11-13T03:31:38.127Z,2.37
2022-11-13T03:32:38.038Z,2.32
2022-11-13T03:33:37.955Z,2.31
2022-11-13T03:34:37.866Z,2.31
2022-11-13T03:35:44.209Z,2.39
2022-11-13T03:36:37.696Z,2.24
2022-11-13T03:37:37.609Z,2.41
2022-11-13T03:38:37.522Z,2.32
2022-11-13T03:39:37.550Z,2.39
2022-11-13T03:40:37.350Z,2.52
2022-11-13T03:41:37.263Z,2.34
2022-11-13T03:42:37.176Z,2.41
2022-11-13T03:43:37.091Z,2.38
2022-11-13T03:44:37.003Z,2.34
2022-11-13T03:45:36.917Z,2.37
2022-11-13T03:46:37.030Z,2.30
2022-11-13T03:47:36.744Z,2.26
2022-11-13T03:48:36.659Z,2.30
2022-11-13T03:49:36.571Z,2.37
2022-11-13T03:50:39.314Z,2.35
2022-11-13T03:51:36.400Z,2.26
2022-11-13T03:52:36.312Z,2.35
2022-11-13T03:53:36.226Z,2.28
2022-11-13T03:54:36.142Z,2.28
2022-11-13T03:55:36.167Z,2.24
2022-11-13T03:56:35.966Z,2.20
2022-11-13T03:57:35.880Z,2.16
2022-11-13T03:58:39.943Z,2.17
2022-11-13T03:59:35.709Z,2.17
2022-11-13T04:00:35.620Z,2.02
2022-11-13T04:01:35.565Z,2.06
2022-11-13T04:02:35.445Z,2.14
2022-11-13T04:03:35.411Z,2.14
2022-11-13T04:04:35.276Z,2.20
2022-11-13T04:05:35.187Z,2.19
2022-11-13T04:06:35.103Z,2.28
2022-11-13T04:07:35.015Z,2.24
2022-11-13T04:08:35.178Z,2.28
2022-11-13T04:09:34.841Z,2.35
2022-11-13T04:10:34.756Z,2.26
2022-11-13T04:11:34.783Z,2.23
2022-11-13T04:12:34.579Z,2.21
2022-11-13T04:13:34.494Z,2.19
2022-11-13T04:14:34.410Z,2.28
2022-11-13T04:15:34.322Z,2.09
2022-11-13T04:16:34.233Z,2.12
2022-11-13T04:17:34.148Z,2.05
2022-11-13T04:18:34.060Z,2.06
2022-11-13T04:19:33.977Z,2.03
2022-11-13T04:20:33.887Z,2.05
2022-11-13T04:21:33.804Z,2.03
2022-11-13T04:22:33.715Z,2.03
2022-11-13T04:23:33.631Z,2.03
2022-11-13T04:24:33.547Z,2.06
2022-11-13T04:25:33.455Z,2.03
2022-11-13T04:26:33.369Z,2.09
2022-11-13T04:27:33.396Z,2.01
2022-11-13T04:28:33.201Z,2.03
2022-11-13T04:29:33.107Z,2.02
2022-11-13T04:30:33.020Z,1.98
2022-11-13T04:31:32.937Z,2.01
2022-11-13T04:32:32.848Z,1.91
2022-11-13T04:33:32.763Z,1.95
2022-11-13T04:34:32.675Z,2.01
2022-11-13T04:35:32.590Z,1.90
2022-11-13T04:36:32.500Z,1.83
2022-11-13T04:37:32.417Z,1.90
2022-11-13T04:38:32.395Z,1.79
2022-11-13T04:39:32.243Z,1.87
2022-11-13T04:40:32.156Z,1.80
2022-11-13T04:41:32.071Z,1.91
2022-11-13T04:42:31.982Z,1.86
2022-11-13T04:43:32.006Z,1.94
2022-11-13T04:44:31.859Z,2.01
2022-11-13T04:45:31.720Z,2.02
2022-11-13T04:46:31.785Z,2.02
2022-11-13T04:47:31.546Z,2.12
2022-11-13T04:48:31.562Z,2.01
2022-11-13T04:49:31.373Z,1.87
2022-11-13T04:50:31.288Z,1.92
2022-11-13T04:51:31.203Z,1.86
2022-11-13T04:52:31.119Z,1.80
2022-11-13T04:53:31.026Z,1.80
2022-11-13T04:54:30.939Z,1.83
2022-11-13T04:55:30.855Z,1.87
2022-11-13T04:56:30.768Z,1.87
2022-11-13T04:57:30.683Z,1.91
2022-11-13T04:58:30.939Z,1.87
2022-11-13T04:59:30.616Z,1.86
2022-11-13T05:00:30.419Z,1.82
2022-11-13T05:01:30.457Z,1.86
2022-11-13T05:02:30.246Z,2.02
2022-11-13T05:03:30.159Z,2.03
2022-11-13T05:04:30.073Z,2.06
2022-11-13T05:05:29.982Z,2.06
2022-11-13T05:06:29.896Z,2.13
2022-11-13T05:07:29.813Z,2.20
2022-11-13T05:08:30.360Z,2.20
2022-11-13T05:09:29.637Z,2.21
2022-11-13T05:10:29.551Z,2.26
2022-11-13T05:11:29.464Z,2.26
2022-11-13T05:12:29.377Z,2.21
2022-11-13T05:13:29.290Z,2.24
2022-11-13T05:14:29.205Z,2.13
2022-11-13T05:15:29.230Z,2.12
2022-11-13T05:16:29.031Z,2.02
2022-11-13T05:17:28.942Z,2.06
2022-11-13T05:18:29.231Z,2.03
2022-11-13T05:19:28.771Z,2.01
2022-11-13T05:20:28.684Z,1.99
2022-11-13T05:21:28.598Z,2.02
2022-11-13T05:22:28.511Z,1.84
2022-11-13T05:23:28.425Z,1.87
2022-11-13T05:24:28.491Z,1.90
2022-11-13T05:25:28.294Z,1.86
2022-11-13T05:26:28.215Z,1.80
2022-11-13T05:27:28.075Z,1.94
2022-11-13T05:28:28.322Z,1.98
2022-11-13T05:29:27.902Z,1.83
2022-11-13T05:30:27.816Z,1.82
2022-11-13T05:31:27.842Z,1.91
2022-11-13T05:32:27.646Z,1.87
2022-11-13T05:33:27.554Z,1.91
2022-11-13T05:34:27.472Z,1.86
2022-11-13T05:35:27.380Z,2.02
2022-11-13T05:36:27.297Z,2.05
2022-11-13T05:37:27.208Z,2.03
2022-11-13T05:38:27.651Z,2.01
2022-11-13T05:39:27.034Z,2.05
2022-11-13T05:40:26.950Z,2.06
2022-11-13T05:41:26.859Z,2.02
2022-11-13T05:42:26.776Z,2.05
2022-11-13T05:43:26.688Z,2.02
2022-11-13T05:44:26.607Z,2.09
2022-11-13T05:45:26.513Z,1.99
2022-11-13T05:46:26.576Z,1.92
2022-11-13T05:47:26.453Z,1.84
2022-11-13T05:48:26.681Z,1.87
2022-11-13T05:49:26.166Z,1.91
2022-11-13T05:50:26.083Z,1.87
2022-11-13T05:51:26.002Z,1.84
2022-11-13T05:52:25.906Z,1.80
2022-11-13T05:53:25.818Z,1.77
2022-11-13T05:54:25.736Z,1.82
2022-11-13T05:55:25.646Z,1.80
2022-11-13T05:56:25.560Z,1.86
2022-11-13T05:57:25.472Z,1.91
2022-11-13T05:58:25.758Z,1.82
2022-11-13T05:59:25.297Z,1.98
2022-11-13T06:00:25.211Z,1.95
2022-11-13T06:01:25.125Z,1.91
2022-11-13T06:02:25.098Z,1.98
2022-11-13T06:03:25.064Z,1.95
2022-11-13T06:04:24.864Z,1.98
2022-11-13T06:05:24.776Z,1.90
2022-11-13T06:06:24.694Z,1.91
2022-11-13T06:07:24.604Z,1.87
2022-11-13T06:08:24.587Z,1.86
2022-11-13T06:09:24.430Z,1.82
2022-11-13T06:10:24.346Z,1.82
2022-11-13T06:11:24.258Z,1.84
2022-11-13T06:12:24.170Z,1.79
2022-11-13T06:13:24.082Z,1.83
2022-11-13T06:14:23.997Z,1.83
2022-11-13T06:15:23.909Z,1.91
2022-11-13T06:16:23.823Z,1.92
2022-11-13T06:17:23.733Z,2.01
2022-11-13T06:18:26.526Z,1.99
2022-11-13T06:19:23.677Z,2.03
2022-11-13T06:20:23.477Z,2.05
2022-11-13T06:21:23.386Z,2.01
2022-11-13T06:22:23.300Z,1.91
2022-11-13T06:23:23.214Z,1.95
2022-11-13T06:24:23.130Z,1.94
2022-11-13T06:25:23.039Z,1.94
2022-11-13T06:26:22.954Z,1.91
2022-11-13T06:27:22.869Z,1.95
2022-11-13T06:28:22.780Z,1.95
2022-11-13T06:29:22.692Z,1.95
2022-11-13T06:30:22.606Z,1.99
2022-11-13T06:31:22.520Z,1.98
2022-11-13T06:32:22.436Z,2.05
2022-11-13T06:33:22.345Z,2.02
2022-11-13T06:34:22.262Z,2.05
2022-11-13T06:35:22.435Z,2.01
2022-11-13T06:36:22.086Z,2.01
2022-11-13T06:37:21.995Z,1.91
2022-11-13T06:38:21.911Z,1.87
2022-11-13T06:39:21.902Z,1.98
2022-11-13T06:40:21.739Z,1.95
2022-11-13T06:41:21.650Z,1.87
2022-11-13T06:42:21.563Z,1.92
2022-11-13T06:43:21.476Z,1.90
2022-11-13T06:44:21.391Z,1.87
2022-11-13T06:45:21.302Z,1.87
2022-11-13T06:46:21.218Z,1.87
2022-11-13T06:47:21.129Z,1.90
2022-11-13T06:48:21.043Z,1.83
2022-11-13T06:49:20.955Z,1.82
2022-11-13T06:50:20.867Z,1.77
2022-11-13T06:51:20.903Z,1.74
2022-11-13T06:52:20.696Z,1.84
2022-11-13T06:53:20.758Z,1.77
2022-11-13T06:54:20.524Z,1.82
2022-11-13T06:55:20.433Z,1.80
2022-11-13T06:56:20.398Z,1.79
2022-11-13T06:57:20.261Z,1.79
2022-11-13T06:58:20.184Z,1.80
2022-11-13T06:59:20.134Z,1.83
2022-11-13T07:00:20.000Z,1.80
2022-11-13T07:01:20.032Z,1.91
2022-11-13T07:02:19.826Z,1.76
2022-11-13T07:03:19.737Z,1.76
2022-11-13T07:04:19.652Z,1.83
2022-11-13T07:05:19.563Z,1.77
2022-11-13T07:06:19.478Z,1.77
2022-11-13T07:07:19.676Z,1.87
2022-11-13T07:08:19.353Z,1.84
2022-11-13T07:09:19.217Z,1.80
2022-11-13T07:10:19.131Z,1.86
2022-11-13T07:11:19.042Z,1.80
2022-11-13T07:12:18.959Z,1.84
2022-11-13T07:13:18.874Z,1.79
2022-11-13T07:14:18.781Z,1.79
2022-11-13T07:15:18.696Z,1.79
2022-11-13T07:16:18.658Z,1.80
2022-11-13T07:17:18.520Z,1.77
2022-11-13T07:18:22.971Z,1.76
2022-11-13T07:19:18.345Z,1.77
2022-11-13T07:20:18.263Z,1.77
2022-11-13T07:21:18.172Z,1.76
2022-11-13T07:22:18.088Z,1.68
2022-11-13T07:23:18.159Z,1.83
2022-11-13T07:24:17.912Z,1.73
2022-11-13T07:25:17.825Z,1.83
2022-11-13T07:26:17.750Z,1.87
2022-11-13T07:27:17.650Z,1.87
2022-11-13T07:28:17.565Z,1.80
2022-11-13T07:29:17.479Z,1.84
2022-11-13T07:30:17.389Z,1.86
2022-11-13T07:31:17.304Z,1.86
2022-11-13T07:32:17.218Z,1.87
2022-11-13T07:33:17.277Z,1.94
2022-11-13T07:34:17.043Z,2.09
2022-11-13T07:35:16.962Z,2.05
2022-11-13T07:36:16.871Z,2.03
2022-11-13T07:37:16.782Z,1.94
2022-11-13T07:38:16.693Z,2.03
2022-11-13T07:39:16.722Z,2.03
2022-11-13T07:40:16.527Z,2.06
2022-11-13T07:41:16.435Z,2.03
2022-11-13T07:42:16.347Z,2.06
2022-11-13T07:43:16.259Z,1.87
2022-11-13T07:44:39.900Z,2.05
2022-11-13T07:45:16.085Z,2.06
2022-11-13T07:46:15.998Z,2.01
2022-11-13T07:47:16.112Z,2.09
2022-11-13T07:48:15.827Z,2.16
2022-11-13T07:49:15.748Z,2.21
2022-11-13T07:50:15.654Z,2.23
2022-11-13T07:51:15.566Z,2.21
2022-11-13T07:52:15.480Z,2.23
2022-11-13T07:53:15.391Z,2.17
2022-11-13T07:54:15.308Z,2.21
2022-11-13T07:55:15.329Z,2.21
2022-11-13T07:56:20.239Z,2.17
2022-11-13T07:57:15.046Z,2.14
2022-11-13T07:58:14.960Z,2.23
2022-11-13T07:59:14.873Z,2.21
2022-11-13T08:00:14.786Z,2.17
2022-11-13T08:01:14.746Z,2.24
2022-11-13T08:02:14.614Z,2.24
2022-11-13T08:03:14.533Z,2.30
2022-11-13T08:04:14.440Z,2.26
2022-11-13T08:05:14.353Z,2.30
2022-11-13T08:06:14.268Z,2.30
2022-11-13T08:07:14.341Z,2.32
2022-11-13T08:08:14.099Z,2.35
2022-11-13T08:09:14.008Z,2.42
2022-11-13T08:10:13.922Z,2.41
2022-11-13T08:11:13.948Z,2.50
2022-11-13T08:12:13.751Z,2.38
2022-11-13T08:13:13.660Z,2.34
2022-11-13T08:14:13.577Z,2.46
2022-11-13T08:15:13.771Z,2.46
2022-11-13T08:16:13.402Z,2.52
2022-11-13T08:17:13.367Z,2.44
2022-11-13T08:18:13.229Z,2.42
2022-11-13T08:19:13.144Z,2.55
2022-11-13T08:20:13.058Z,2.63
2022-11-13T08:21:15.078Z,2.70
2022-11-13T08:22:12.885Z,2.80
2022-11-13T08:23:12.798Z,2.84
2022-11-13T08:24:12.714Z,2.88
2022-11-13T08:25:12.626Z,2.93
2022-11-13T08:26:12.544Z,2.86
2022-11-13T08:27:12.575Z,2.88
2022-11-13T08:28:13.464Z,2.86
2022-11-13T08:29:12.290Z,2.86
2022-11-13T08:30:12.196Z,2.91
2022-11-13T08:31:12.118Z,2.84
2022-11-13T08:32:12.024Z,2.96
2022-11-13T08:33:11.936Z,2.98
2022-11-13T08:34:11.854Z,3.07
2022-11-13T08:35:17.399Z,3.10
2022-11-13T08:36:11.683Z,3.14
2022-11-13T08:37:11.595Z,3.19
2022-11-13T08:38:11.508Z,3.28
2022-11-13T08:39:11.422Z,3.28
2022-11-13T08:40:11.338Z,3.25
2022-11-13T08:41:11.250Z,3.34
2022-11-13T08:42:11.165Z,3.37
2022-11-13T08:43:11.189Z,3.34
2022-11-13T08:44:10.995Z,3.39
2022-11-13T08:45:10.908Z,3.46
2022-11-13T08:46:10.821Z,3.46
2022-11-13T08:47:10.737Z,3.37
2022-11-13T08:48:10.651Z,3.57
2022-11-13T08:49:10.564Z,3.65
2022-11-13T08:50:10.503Z,3.57
2022-11-13T08:51:10.449Z,3.62
2022-11-13T08:52:10.367Z,3.69
2022-11-13T08:53:10.273Z,3.83
2022-11-13T08:54:10.137Z,3.84
2022-11-13T08:55:10.115Z,3.84
2022-11-13T08:56:10.035Z,3.86
2022-11-13T08:57:09.950Z,3.92
2022-11-13T08:58:09.894Z,4.01
2022-11-13T08:59:09.892Z,4.00
2022-11-13T09:00:09.710Z,3.98
2022-11-13T09:01:09.574Z,4.05
2022-11-13T09:02:09.457Z,4.16
2022-11-13T09:03:09.424Z,4.12
2022-11-13T09:04:09.411Z,4.15
2022-11-13T09:05:09.200Z,4.11
2022-11-13T09:06:09.117Z,4.23
2022-11-13T09:07:09.086Z,4.26
2022-11-13T09:08:08.950Z,4.36
2022-11-13T09:09:08.862Z,4.44
2022-11-13T09:10:08.775Z,4.50
2022-11-13T09:11:08.690Z,4.59
2022-11-13T09:12:08.609Z,4.73
2022-11-13T09:13:08.522Z,4.64
2022-11-13T09:14:08.437Z,4.74
2022-11-13T09:15:08.467Z,4.80
2022-11-13T09:16:08.268Z,4.88
2022-11-13T09:17:08.184Z,4.80
2022-11-13T09:18:08.106Z,4.74
2022-11-13T09:19:08.115Z,4.95
2022-11-13T09:20:11.309Z,4.96
2022-11-13T09:21:07.846Z,4.92
2022-11-13T09:22:07.761Z,5.11
2022-11-13T09:23:07.677Z,5.08
2022-11-13T09:24:07.594Z,5.24
2022-11-13T09:25:07.511Z,5.31
2022-11-13T09:26:07.425Z,5.41
2022-11-13T09:27:07.342Z,5.35
2022-11-13T09:28:07.268Z,5.53
2022-11-13T09:29:07.175Z,5.49
2022-11-13T09:30:07.090Z,5.50
2022-11-13T09:31:07.123Z,5.53
2022-11-13T09:32:06.923Z,5.75
2022-11-13T09:33:06.841Z,5.67
2022-11-13T09:34:06.758Z,5.65
2022-11-13T09:35:06.675Z,5.62
2022-11-13T09:36:06.590Z,5.59
2022-11-13T09:37:06.507Z,5.72
2022-11-13T09:38:11.019Z,5.83
2022-11-13T09:39:06.343Z,5.85
2022-11-13T09:40:06.256Z,5.89
2022-11-13T09:41:06.173Z,5.99
2022-11-13T09:42:06.089Z,6.07
2022-11-13T09:43:06.008Z,6.17
2022-11-13T09:44:05.929Z,6.27
2022-11-13T09:45:05.842Z,6.30
2022-11-13T09:46:05.757Z,6.34
2022-11-13T09:47:05.791Z,6.39
2022-11-13T09:48:05.591Z,6.48
2022-11-13T09:49:05.509Z,6.54
2022-11-13T09:50:05.473Z,6.55
2022-11-13T09:51:05.344Z,6.55
2022-11-13T09:52:06.795Z,6.65
2022-11-13T09:53:05.179Z,6.70
2022-11-13T09:54:05.093Z,6.72
2022-11-13T09:55:05.014Z,6.80
2022-11-13T09:56:04.928Z,6.87
2022-11-13T09:57:04.847Z,6.96
2022-11-13T09:58:04.763Z,6.93
2022-11-13T09:59:04.681Z,6.96
2022-11-13T10:00:04.602Z,6.98
2022-11-13T10:01:04.584Z,7.06
2022-11-13T10:02:04.436Z,7.16
2022-11-13T10:03:04.462Z,7.12
2022-11-13T10:04:04.691Z,7.23
2022-11-13T10:05:04.193Z,7.34
2022-11-13T10:06:04.104Z,7.39
2022-11-13T10:07:04.163Z,7.48
2022-11-13T10:08:03.939Z,7.59
2022-11-13T10:09:03.858Z,7.56
2022-11-13T10:10:03.776Z,7.72
2022-11-13T10:11:03.696Z,7.81
2022-11-13T10:12:03.610Z,7.83
2022-11-13T10:13:03.531Z,7.90
2022-11-13T10:14:03.446Z,7.93
2022-11-13T10:15:03.366Z,7.99
2022-11-13T10:16:03.339Z,8.06
2022-11-13T10:17:03.226Z,8.11
2022-11-13T10:18:03.118Z,8.22
2022-11-13T10:19:03.159Z,8.21
2022-11-13T10:20:02.955Z,8.27
2022-11-13T10:21:08.293Z,8.30
2022-11-13T10:22:31.098Z,8.47
2022-11-13T10:23:02.711Z,8.55
2022-11-13T10:24:02.633Z,8.76
2022-11-13T10:25:02.548Z,8.85
2022-11-13T10:26:02.466Z,8.85
2022-11-13T10:27:02.441Z,8.98
2022-11-13T10:28:15.927Z,9.05
2022-11-13T10:29:02.290Z,9.17
2022-11-13T10:30:02.144Z,9.35
2022-11-13T10:31:02.064Z,9.79
2022-11-13T10:32:01.985Z,10.19
2022-11-13T10:33:01.914Z,10.46
2022-11-13T10:34:01.821Z,10.33
2022-11-13T10:35:01.850Z,10.44
2022-11-13T10:36:01.662Z,10.56
2022-11-13T10:37:01.714Z,10.58
2022-11-13T10:38:06.604Z,10.62
2022-11-13T10:39:01.425Z,10.62
2022-11-13T10:40:01.345Z,10.62
2022-11-13T10:41:01.262Z,10.65
2022-11-13T10:42:01.183Z,10.88
2022-11-13T10:43:01.107Z,11.18
2022-11-13T10:44:01.026Z,10.87
2022-11-13T10:45:00.950Z,10.71
2022-11-13T10:46:00.870Z,10.59
2022-11-13T10:47:00.856Z,10.56
2022-11-13T10:48:05.188Z,10.66
2022-11-13T10:49:00.633Z,10.56
2022-11-13T10:50:00.557Z,10.41
2022-11-13T10:51:00.589Z,10.46
2022-11-13T10:52:00.401Z,10.41
2022-11-13T10:53:00.322Z,10.46
2022-11-13T10:54:00.244Z,10.59
2022-11-13T10:55:00.194Z,10.44
2022-11-13T10:56:00.090Z,10.23
2022-11-13T10:57:00.304Z,10.28
2022-11-13T10:57:59.932Z,10.26
2022-11-13T10:58:59.849Z,10.29
2022-11-13T10:59:59.771Z,10.28
2022-11-13T11:00:59.785Z,10.33
2022-11-13T11:01:59.615Z,10.44
2022-11-13T11:02:59.535Z,10.43
2022-11-13T11:03:59.454Z,10.46
2022-11-13T11:04:59.377Z,10.49
2022-11-13T11:05:59.295Z,10.60
2022-11-13T11:07:19.791Z,10.65
2022-11-13T11:07:59.212Z,10.66
2022-11-13T11:08:59.065Z,10.74
2022-11-13T11:09:58.982Z,10.75
2022-11-13T11:10:58.904Z,10.74
2022-11-13T11:11:58.826Z,10.75
2022-11-13T11:12:58.744Z,10.75
2022-11-13T11:13:58.664Z,10.85
2022-11-13T11:14:58.598Z,10.96
2022-11-13T11:15:58.509Z,11.00
2022-11-13T11:16:58.494Z,11.17
2022-11-13T11:17:58.349Z,11.18
2022-11-13T11:18:58.271Z,11.28
2022-11-13T11:19:58.195Z,11.35
2022-11-13T11:20:58.115Z,11.51
2022-11-13T11:21:58.034Z,11.57
2022-11-13T11:22:58.073Z,11.69
2022-11-13T11:23:57.879Z,12.00
2022-11-13T11:24:57.804Z,11.97
2022-11-13T11:25:57.842Z,12.34
2022-11-13T11:26:57.729Z,12.39
2022-11-13T11:27:57.573Z,12.59
2022-11-13T11:28:57.493Z,12.74
2022-11-13T11:29:57.418Z,13.00
2022-11-13T11:30:57.345Z,13.25
2022-11-13T11:31:57.265Z,13.70
2022-11-13T11:32:57.192Z,13.55
2022-11-13T11:33:57.115Z,13.68
2022-11-13T11:34:59.288Z,14.05
2022-11-13T11:35:56.965Z,14.34
2022-11-13T11:36:56.890Z,14.54
2022-11-13T11:37:56.813Z,14.94
2022-11-13T11:38:59.477Z,15.42
2022-11-13T11:39:56.665Z,15.43
2022-11-13T11:40:56.590Z,15.33
2022-11-13T11:41:56.515Z,15.70
2022-11-13T11:42:56.443Z,15.97
2022-11-13T11:44:43.857Z,17.00
2022-11-13T11:45:43.788Z,16.81
2022-11-13T11:46:46.669Z,16.80
2022-11-13T11:47:43.643Z,17.23
2022-11-13T11:50:18.800Z,16.41
2022-11-13T11:51:18.729Z,16.12
2022-11-13T11:52:18.653Z,16.88
2022-11-13T11:53:18.583Z,16.80
2022-11-13T11:54:18.638Z,16.89
2022-11-13T11:55:18.442Z,17.21
2022-11-13T11:56:18.369Z,17.28
2022-11-13T11:57:18.299Z,17.20
2022-11-13T11:58:18.227Z,17.23
2022-11-13T11:59:18.158Z,17.85
2022-11-13T12:00:18.084Z,18.19
2022-11-13T12:01:18.015Z,18.42
2022-11-13T12:02:17.993Z,19.01
2022-11-13T12:03:17.872Z,19.11
2022-11-13T12:04:17.803Z,18.77
